Time;durP1;ratioP1;P1;durP2;ratioP2;P2;SDS_P1;SDS_P2;PMS_P1;PMS_P2;Temp;Humidity;BMP_temperature;BMP_pressure;BME280_temperature;BME280_humidity;BME280_pressure;Samples;Min_cycle;Max_cycle;Signal;HPM_P1;HPM_P2
2023/09/01 00:00:04;;;;;;;2.85;1.73;;;;;;;21.87;49.72;99692.84;4322207;33;33865;-75
2023/09/01 00:02:32;;;;;;;2.42;1.42;;;;;;;21.86;49.12;99690.28;4319610;33;34141;-75
2023/09/01 00:05:02;;;;;;;3.15;1.45;;;;;;;21.86;49.14;99693.00;4320990;33;33790;-76
2023/09/01 00:07:30;;;;;;;2.00;1.30;;;;;;;21.87;49.48;99698.28;4321329;33;34729;-75
2023/09/01 00:09:58;;;;;;;3.33;1.95;;;;;;;21.89;49.69;99689.91;4320729;33;33615;-76
2023/09/01 00:12:26;;;;;;;3.40;1.40;;;;;;;21.89;49.50;99702.69;4324139;33;34047;-75
2023/09/01 00:14:54;;;;;;;4.75;1.48;;;;;;;21.53;50.44;99704.28;4327114;33;34954;-75
2023/09/01 00:17:21;;;;;;;3.60;1.42;;;;;;;21.45;51.01;99692.66;4316943;33;34699;-76
2023/09/01 00:19:49;;;;;;;2.05;1.20;;;;;;;21.65;50.66;99703.84;4325660;33;33800;-75
2023/09/01 00:22:17;;;;;;;2.67;1.58;;;;;;;21.66;50.71;99703.63;4325677;33;35855;-75
2023/09/01 00:24:44;;;;;;;3.33;1.62;;;;;;;21.62;50.79;99699.59;4327289;33;34165;-75
2023/09/01 00:27:12;;;;;;;9.07;1.95;;;;;;;21.57;50.66;99702.91;4325473;33;33188;-75
2023/09/01 00:29:40;;;;;;;2.05;1.15;;;;;;;21.46;50.76;99697.91;4347261;32;34575;-75
2023/09/01 00:32:07;;;;;;;3.42;1.58;;;;;;;21.53;50.30;99698.84;4354745;32;34018;-76
2023/09/01 00:34:35;;;;;;;5.15;1.70;;;;;;;21.56;50.34;99712.06;4357492;32;33929;-75
2023/09/01 00:37:03;;;;;;;6.43;1.70;;;;;;;21.45;50.79;99707.09;4347202;32;35158;-74
2023/09/01 00:39:30;;;;;;;4.25;1.40;;;;;;;21.40;50.89;99704.09;4361598;32;34649;-76
2023/09/01 00:41:59;;;;;;;3.42;1.85;;;;;;;21.43;50.74;99705.59;4360439;32;34173;-75
2023/09/01 00:44:26;;;;;;;2.92;1.73;;;;;;;21.38;50.83;99707.00;4362148;32;33918;-75
2023/09/01 00:46:54;;;;;;;2.83;1.52;;;;;;;21.36;50.60;99710.94;4349566;32;33357;-76
2023/09/01 00:49:22;;;;;;;2.67;1.65;;;;;;;21.30;50.66;99717.09;4353309;32;33535;-76
2023/09/01 00:51:49;;;;;;;3.12;1.55;;;;;;;21.28;50.71;99711.81;4349361;32;33932;-76
2023/09/01 00:54:17;;;;;;;1.95;1.17;;;;;;;21.23;50.80;99716.12;4356969;32;35165;-76
2023/09/01 00:56:47;;;;;;;2.92;1.58;;;;;;;21.20;50.82;99714.62;4360264;32;35007;-76
2023/09/01 00:59:14;;;;;;;3.00;1.58;;;;;;;21.18;50.77;99712.06;4357776;32;33585;-76
2023/09/01 01:01:42;;;;;;;3.35;1.83;;;;;;;21.13;50.98;99709.06;4356502;32;33711;-75
2023/09/01 01:04:11;;;;;;;3.97;1.40;;;;;;;20.98;51.49;99708.19;4356466;32;35310;-75
2023/09/01 01:07:00;;;;;;;2.95;1.35;;;;;;;20.84;51.90;99718.00;4323995;32;33668;-75
2023/09/01 01:10:01;;;;;;;4.78;1.60;;;;;;;20.86;51.77;99709.63;4344001;32;32586;-77
2023/09/01 01:12:31;;;;;;;4.43;1.30;;;;;;;20.86;51.71;99712.34;4331832;33;33683;-77
2023/09/01 01:15:08;;;;;;;1.65;1.05;;;;;;;20.75;52.10;99718.22;4343282;33;33806;-77
2023/09/01 01:17:39;;;;;;;2.40;1.27;;;;;;;20.71;52.19;99715.03;4333516;32;33585;-76
2023/09/01 01:20:31;;;;;;;2.50;1.50;;;;;;;20.67;52.19;99721.84;4343857;32;34858;-76
2023/09/01 01:23:10;;;;;;;2.58;1.40;;;;;;;20.62;52.28;99711.50;4286448;33;34277;-76
2023/09/01 01:25:45;;;;;;;3.05;1.62;;;;;;;20.61;52.42;99712.56;4289772;33;33813;-76
2023/09/01 01:28:13;;;;;;;2.20;1.17;;;;;;;20.58;52.46;99712.06;4301167;33;32681;-76
2023/09/01 01:30:42;;;;;;;2.83;1.42;;;;;;;20.58;52.50;99712.91;4294085;33;34919;-76
2023/09/01 01:33:27;;;;;;;3.20;1.50;;;;;;;20.58;52.59;99707.47;4294088;33;34061;-76
2023/09/01 01:36:21;;;;;;;1.77;1.35;;;;;;;20.61;52.43;99718.00;4290441;33;33992;-75
2023/09/01 01:39:02;;;;;;;3.83;2.03;;;;;;;20.60;52.59;99710.00;4289532;33;34595;-75
2023/09/01 01:41:40;;;;;;;2.25;1.15;;;;;;;20.56;52.56;99705.94;4296478;33;33595;-75
2023/09/01 01:44:09;;;;;;;2.72;1.23;;;;;;;20.50;52.70;99704.75;4297170;33;33778;-75
2023/09/01 01:46:39;;;;;;;3.00;1.20;;;;;;;20.37;53.05;99704.50;4297029;33;34014;-75
2023/09/01 01:49:09;;;;;;;2.10;1.33;;;;;;;20.15;53.70;99703.44;4293827;33;34326;-76
2023/09/01 01:51:37;;;;;;;4.53;1.77;;;;;;;20.14;53.69;99708.03;4290846;33;33420;-76
2023/09/01 01:54:05;;;;;;;2.55;0.98;;;;;;;20.06;53.91;99716.19;4300493;33;34732;-75
2023/09/01 01:56:33;;;;;;;2.37;1.40;;;;;;;20.01;53.95;99711.31;4291441;33;33914;-75
2023/09/01 01:59:04;;;;;;;1.45;0.82;;;;;;;19.97;53.97;99712.69;4294696;33;33453;-75
2023/09/01 02:01:32;;;;;;;2.10;1.35;;;;;;;19.91;53.96;99720.69;4361607;32;34834;-76
2023/09/01 02:04:00;;;;;;;2.00;1.20;;;;;;;19.93;53.78;99724.06;4372980;32;34062;-75
2023/09/01 02:06:27;;;;;;;2.05;1.33;;;;;;;19.92;53.76;99725.94;4372998;32;33961;-75
2023/09/01 02:08:55;;;;;;;1.60;0.80;;;;;;;19.94;53.60;99731.22;4362255;32;34911;-75
2023/09/01 02:11:23;;;;;;;3.00;1.85;;;;;;;19.77;53.90;99731.28;4371800;32;34781;-76
2023/09/01 02:13:51;;;;;;;3.20;1.45;;;;;;;19.65;54.06;99738.09;4367130;32;34220;-76
2023/09/01 02:16:18;;;;;;;2.45;1.20;;;;;;;19.66;53.92;99739.78;4375575;32;33714;-76
2023/09/01 02:18:46;;;;;;;5.10;1.65;;;;;;;19.60;54.08;99747.72;4376008;32;33626;-75
2023/09/01 02:21:20;;;;;;;2.40;1.45;;;;;;;19.63;54.01;99737.38;4372494;32;33731;-76
2023/09/01 02:23:48;;;;;;;3.65;1.52;;;;;;;19.67;53.88;99737.91;4374194;32;35300;-76
2023/09/01 02:26:18;;;;;;;3.00;1.37;;;;;;;19.74;53.49;99744.31;4367440;32;33845;-76
2023/09/01 02:28:46;;;;;;;1.23;0.90;;;;;;;19.63;53.70;99748.22;4373108;32;32375;-79
2023/09/01 02:31:14;;;;;;;1.65;0.98;;;;;;;19.61;53.72;99746.69;4368895;32;33989;-75
2023/09/01 02:33:43;;;;;;;2.17;1.30;;;;;;;19.72;53.55;99743.66;4376351;32;33766;-77
2023/09/01 02:36:43;;;;;;;3.72;1.67;;;;;;;19.69;53.63;99744.84;4374993;32;33995;-77
2023/09/01 02:39:11;;;;;;;2.40;1.37;;;;;;;19.75;53.41;99744.16;4317890;33;33282;-77
2023/09/01 02:41:39;;;;;;;4.60;2.15;;;;;;;19.69;53.48;99747.56;4320540;33;33383;-80
2023/09/01 02:44:06;;;;;;;1.33;0.77;;;;;;;19.67;53.41;99741.47;4327308;33;32878;-79
2023/09/01 02:46:34;;;;;;;5.03;1.37;;;;;;;19.70;53.09;99735.69;4321857;33;33978;-81
2023/09/01 02:49:02;;;;;;;1.08;0.98;;;;;;;19.64;53.16;99740.97;4323846;33;34257;-82
2023/09/01 02:51:29;;;;;;;1.10;0.82;;;;;;;19.70;53.00;99745.69;4317651;33;33790;-82
2023/09/01 02:53:58;;;;;;;1.85;1.12;;;;;;;19.69;53.05;99739.44;4322855;33;35261;-81
2023/09/01 02:56:25;;;;;;;3.70;1.50;;;;;;;19.72;53.02;99735.53;4314996;33;32432;-82
2023/09/01 02:58:53;;;;;;;1.23;1.00;;;;;;;19.78;53.17;99740.25;4325994;33;33661;-80
2023/09/01 03:01:22;;;;;;;2.90;1.20;;;;;;;19.78;53.14;99735.66;4327526;33;34390;-80
2023/09/01 03:03:50;;;;;;;2.25;1.17;;;;;;;19.80;53.01;99735.47;4317044;33;34902;-80
2023/09/01 03:06:17;;;;;;;2.50;1.40;;;;;;;19.80;53.10;99724.63;4318821;33;34384;-79
2023/09/01 03:08:45;;;;;;;2.85;1.65;;;;;;;19.76;53.02;99740.41;4328781;33;33358;-81
2023/09/01 03:11:13;;;;;;;3.15;1.30;;;;;;;19.80;52.92;99735.47;4329056;33;34575;-81
2023/09/01 03:13:41;;;;;;;2.28;1.20;;;;;;;19.79;52.91;99741.94;4327723;33;33909;-81
2023/09/01 03:16:10;;;;;;;3.17;1.37;;;;;;;19.74;53.07;99741.59;4354515;32;34590;-76
2023/09/01 03:18:38;;;;;;;2.87;1.30;;;;;;;19.70;53.19;99741.09;4360306;32;34628;-75
2023/09/01 03:21:10;;;;;;;2.50;1.33;;;;;;;19.69;52.92;99744.00;4358796;32;34738;-75
2023/09/01 03:23:38;;;;;;;2.20;1.10;;;;;;;19.66;52.86;99744.34;4360811;32;33821;-76
2023/09/01 03:26:06;;;;;;;2.47;1.27;;;;;;;19.63;52.93;99750.94;4356828;32;34012;-76
2023/09/01 03:28:34;;;;;;;1.27;0.93;;;;;;;19.62;52.94;99743.84;4358630;32;34528;-75
2023/09/01 03:31:08;;;;;;;1.95;1.20;;;;;;;19.47;53.28;99742.84;4356766;32;33502;-75
2023/09/01 03:33:37;;;;;;;2.20;1.00;;;;;;;19.20;53.62;99754.91;4359646;32;33953;-80
2023/09/01 03:36:07;;;;;;;3.12;1.05;;;;;;;19.22;53.44;99742.00;4357852;32;35141;-76
2023/09/01 03:38:38;;;;;;;1.65;1.25;;;;;;;19.27;53.34;99748.63;4360998;32;34196;-79
2023/09/01 03:41:07;;;;;;;1.80;1.02;;;;;;;18.89;54.01;99752.00;4356804;32;33828;-76
2023/09/01 03:43:35;;;;;;;2.78;1.23;;;;;;;18.94;53.86;99755.91;4360570;32;33820;-78
2023/09/01 03:46:02;;;;;;;3.17;1.08;;;;;;;18.92;53.83;99755.22;4360584;32;34061;-79
2023/09/01 03:48:31;;;;;;;2.60;1.20;;;;;;;18.70;54.46;99753.97;4359179;32;34343;-76
2023/09/01 03:51:04;;;;;;;2.03;0.95;;;;;;;18.80;54.26;99751.97;4351384;32;37269;-78
2023/09/01 03:53:32;;;;;;;2.10;1.20;;;;;;;18.89;54.14;99757.44;4359087;32;35045;-76
2023/09/01 03:56:05;;;;;;;2.30;0.98;;;;;;;18.84;54.51;99764.22;4360006;32;34933;-75
2023/09/01 03:58:35;;;;;;;4.22;1.67;;;;;;;18.93;54.52;99766.91;4360042;32;33592;-74
2023/09/01 04:01:08;;;;;;;5.40;2.10;;;;;;;18.92;54.79;99770.66;4355615;32;33875;-75
2023/09/01 04:03:36;;;;;;;3.30;1.48;;;;;;;19.02;54.37;99764.03;4374711;32;33892;-75
2023/09/01 04:06:05;;;;;;;1.85;1.20;;;;;;;18.76;54.52;99764.19;4373220;32;34440;-75
2023/09/01 04:08:34;;;;;;;7.18;1.83;;;;;;;18.82;54.38;99763.53;4364884;32;34873;-74
2023/09/01 04:11:05;;;;;;;4.68;1.58;;;;;;;19.03;54.05;99764.87;4367056;32;34202;-74
2023/09/01 04:13:33;;;;;;;3.47;1.42;;;;;;;18.77;55.15;99763.16;4372900;32;33925;-75
2023/09/01 04:16:01;;;;;;;2.28;1.12;;;;;;;18.98;54.95;99770.84;4367899;32;34069;-75
2023/09/01 04:18:30;;;;;;;1.90;1.37;;;;;;;18.94;55.29;99757.75;4361222;32;33605;-75
2023/09/01 04:20:58;;;;;;;2.10;1.40;;;;;;;19.05;55.13;99766.41;4374238;32;34732;-75
2023/09/01 04:23:25;;;;;;;3.80;1.52;;;;;;;19.23;54.90;99771.69;4375501;32;35044;-75
2023/09/01 04:25:53;;;;;;;7.93;1.92;;;;;;;19.33;54.79;99765.25;4370975;32;35187;-75
2023/09/01 04:28:22;;;;;;;2.85;1.40;;;;;;;19.42;54.49;99769.62;4375068;32;33366;-75
2023/09/01 04:30:49;;;;;;;3.05;1.33;;;;;;;19.50;54.36;99772.34;4372455;32;34760;-75
2023/09/01 04:33:18;;;;;;;2.60;1.42;;;;;;;19.61;54.17;99776.56;4372721;32;33982;-75
2023/09/01 04:36:03;;;;;;;0.82;0.80;;;;;;;19.66;54.00;99766.09;4373781;32;34162;-76
2023/09/01 04:38:32;;;;;;;3.33;1.75;;;;;;;19.61;54.25;99763.84;4372553;32;34348;-75
2023/09/01 04:41:00;;;;;;;6.75;1.67;;;;;;;19.77;53.93;99762.97;4375149;32;34786;-75
2023/09/01 04:43:28;;;;;;;2.05;1.23;;;;;;;19.84;53.88;99764.00;4374876;32;34031;-75
2023/09/01 04:45:57;;;;;;;5.10;1.58;;;;;;;19.94;54.32;99761.09;4372504;32;33874;-76
2023/09/01 04:48:27;;;;;;;2.70;1.33;;;;;;;20.07;54.08;99764.09;4371813;32;33826;-76
2023/09/01 04:50:55;;;;;;;3.40;1.48;;;;;;;20.09;53.89;99762.03;4374613;32;34905;-75
2023/09/01 04:53:23;;;;;;;3.60;1.23;;;;;;;20.16;53.63;99756.75;4374009;32;35028;-75
2023/09/01 04:55:50;;;;;;;2.03;1.10;;;;;;;20.10;54.16;99761.03;4354313;32;34100;-75
2023/09/01 04:58:18;;;;;;;6.78;2.00;;;;;;;20.23;54.19;99763.19;4374353;32;33248;-76
2023/09/01 05:00:46;;;;;;;4.60;1.25;;;;;;;20.41;53.93;99754.75;4369876;32;33870;-76
2023/09/01 05:03:14;;;;;;;5.05;2.05;;;;;;;20.48;53.91;99762.03;4371244;32;33930;-76
2023/09/01 05:05:42;;;;;;;5.00;1.45;;;;;;;20.52;53.96;99772.59;4373276;32;33938;-76
2023/09/01 05:08:10;;;;;;;5.22;1.90;;;;;;;20.57;53.99;99764.72;4373521;32;33377;-75
2023/09/01 05:10:38;;;;;;;3.20;1.67;;;;;;;20.62;53.79;99771.34;4372953;32;33473;-75
2023/09/01 05:13:05;;;;;;;4.97;1.85;;;;;;;20.63;53.92;99778.47;4374465;32;33703;-73
2023/09/01 05:15:34;;;;;;;4.57;1.87;;;;;;;20.65;54.04;99778.28;4368549;32;33938;-75
2023/09/01 05:18:02;;;;;;;4.32;1.52;;;;;;;20.73;53.88;99783.66;4372660;32;33283;-74
2023/09/01 05:20:30;;;;;;;2.85;1.27;;;;;;;20.78;53.75;99783.16;4371126;32;34767;-74
2023/09/01 05:22:58;;;;;;;2.05;1.37;;;;;;;20.84;53.32;99790.59;4373642;32;33927;-74
2023/09/01 05:25:26;;;;;;;4.70;1.48;;;;;;;20.88;52.86;99790.03;4373447;32;32869;-74
2023/09/01 05:27:55;;;;;;;8.27;2.17;;;;;;;20.90;52.52;99782.56;4369802;32;34624;-73
2023/09/01 05:30:23;;;;;;;5.18;1.35;;;;;;;20.90;51.88;99785.28;4368981;32;33576;-73
2023/09/01 05:32:50;;;;;;;3.80;1.95;;;;;;;20.88;51.80;99781.88;4361958;32;33846;-73
2023/09/01 05:35:18;;;;;;;3.42;1.98;;;;;;;20.97;51.50;99781.84;4362329;32;33674;-72
2023/09/01 05:37:46;;;;;;;2.10;1.45;;;;;;;21.00;50.89;99785.03;4374329;32;33086;-74
2023/09/01 05:40:14;;;;;;;3.72;1.55;;;;;;;21.01;50.83;99786.72;4372177;32;34661;-74
2023/09/01 05:42:42;;;;;;;2.83;1.40;;;;;;;21.08;51.09;99786.84;4374961;32;34956;-74
2023/09/01 05:45:10;;;;;;;2.47;1.45;;;;;;;21.21;51.00;99789.78;4369167;32;34016;-75
2023/09/01 05:47:37;;;;;;;3.70;1.27;;;;;;;21.18;50.90;99785.56;4373081;32;33203;-74
2023/09/01 05:50:06;;;;;;;2.25;1.30;;;;;;;21.24;50.60;99788.59;4375155;32;33892;-75
2023/09/01 05:52:33;;;;;;;4.87;1.65;;;;;;;21.26;50.34;99792.81;4370612;32;34977;-75
2023/09/01 05:55:01;;;;;;;4.32;1.20;;;;;;;21.27;50.68;99801.84;4374434;32;33892;-74
2023/09/01 05:57:28;;;;;;;2.97;1.65;;;;;;;21.29;50.56;99792.47;4375851;32;33368;-74
2023/09/01 05:59:58;;;;;;;6.32;1.70;;;;;;;21.30;50.77;99802.31;4374813;32;33944;-74
2023/09/01 06:02:25;;;;;;;4.47;2.33;;;;;;;21.27;50.98;99802.69;4368472;32;32309;-74
2023/09/01 06:04:53;;;;;;;2.85;1.48;;;;;;;21.26;51.18;99803.72;4375381;32;33848;-74
2023/09/01 06:07:21;;;;;;;2.08;1.10;;;;;;;21.26;51.09;99798.28;4373726;32;33628;-74
2023/09/01 06:09:49;;;;;;;3.58;1.45;;;;;;;21.36;51.00;99801.63;4373420;32;33684;-74
2023/09/01 06:12:17;;;;;;;11.93;1.67;;;;;;;21.33;51.12;99795.66;4362674;32;34401;-74
2023/09/01 06:14:44;;;;;;;4.53;1.77;;;;;;;21.52;50.26;99797.06;4372164;32;34994;-75
2023/09/01 06:17:12;;;;;;;2.40;1.58;;;;;;;21.60;50.11;99803.28;4366946;32;33283;-74
2023/09/01 06:19:40;;;;;;;7.55;1.70;;;;;;;21.75;49.91;99805.19;4369872;32;33796;-74
2023/09/01 06:22:07;;;;;;;3.97;1.95;;;;;;;21.84;49.87;99801.34;4371222;32;34016;-74
2023/09/01 06:24:35;;;;;;;3.08;1.60;;;;;;;21.98;49.76;99800.50;4367232;32;34019;-74
2023/09/01 06:27:03;;;;;;;5.03;1.95;;;;;;;22.08;49.35;99797.50;4366818;32;33042;-74
2023/09/01 06:29:31;;;;;;;2.95;1.60;;;;;;;22.17;48.75;99801.84;4371179;32;33859;-75
2023/09/01 06:31:58;;;;;;;2.87;1.37;;;;;;;22.24;48.75;99802.78;4369754;32;34987;-75
2023/09/01 06:34:26;;;;;;;3.47;1.77;;;;;;;22.34;48.79;99797.03;4370482;32;34893;-75
2023/09/01 06:36:54;;;;;;;3.08;1.58;;;;;;;22.27;48.86;99796.13;4373359;32;32338;-75
2023/09/01 06:39:21;;;;;;;3.90;2.05;;;;;;;22.49;48.06;99786.13;4373680;32;34613;-75
2023/09/01 06:41:49;;;;;;;5.80;1.42;;;;;;;22.65;48.16;99796.81;4375494;32;34908;-75
2023/09/01 06:44:17;;;;;;;10.27;2.10;;;;;;;22.85;48.52;99794.31;4369458;32;35087;-75
2023/09/01 06:46:44;;;;;;;3.20;1.73;;;;;;;23.05;47.49;99799.16;4368127;32;33653;-75
2023/09/01 06:49:12;;;;;;;5.05;1.70;;;;;;;23.41;47.39;99804.56;4366280;32;34476;-75
2023/09/01 06:51:40;;;;;;;3.05;1.05;;;;;;;23.81;47.21;99804.91;4372430;32;35135;-75
2023/09/01 06:54:10;;;;;;;2.40;1.25;;;;;;;23.85;45.51;99803.47;4360671;32;33963;-75
2023/09/01 06:56:38;;;;;;;4.07;1.70;;;;;;;23.86;45.10;99802.44;4360412;32;33581;-75
2023/09/01 06:59:05;;;;;;;3.87;1.67;;;;;;;23.84;44.76;99808.09;4362121;32;33509;-75
2023/09/01 07:01:33;;;;;;;3.72;1.90;;;;;;;23.87;44.31;99825.97;4360824;32;223812;-74
2023/09/01 07:04:03;;;;;;;4.22;1.67;;;;;;;23.80;45.69;99828.66;4339906;33;34531;-74
2023/09/01 07:06:30;;;;;;;3.40;1.75;;;;;;;23.81;46.65;99829.50;4343015;32;33638;-75
2023/09/01 07:08:58;;;;;;;2.10;1.12;;;;;;;23.89;46.68;99838.41;4341561;32;33644;-75
2023/09/01 07:11:26;;;;;;;4.10;1.87;;;;;;;24.20;45.16;99828.94;4339556;32;33425;-75
2023/09/01 07:13:53;;;;;;;2.67;1.60;;;;;;;24.12;44.89;99834.56;4341963;33;34025;-75
2023/09/01 07:16:21;;;;;;;5.20;2.72;;;;;;;24.32;44.30;99829.22;4341982;33;33328;-75
2023/09/01 07:18:51;;;;;;;2.92;1.30;;;;;;;24.32;43.73;99832.78;4341320;32;34742;-75
2023/09/01 07:21:18;;;;;;;3.10;1.55;;;;;;;24.38;43.35;99826.53;4341888;33;33783;-75
2023/09/01 07:23:47;;;;;;;3.25;1.75;;;;;;;24.40;44.13;99829.06;4342744;33;33816;-75
2023/09/01 07:26:15;;;;;;;4.28;1.77;;;;;;;24.37;44.75;99829.47;4343706;33;33206;-75
2023/09/01 07:28:43;;;;;;;2.87;1.35;;;;;;;24.28;45.31;99833.41;4339919;32;34528;-69
2023/09/01 07:31:12;;;;;;;2.62;1.12;;;;;;;24.47;43.59;99834.59;4341813;33;34822;-78
2023/09/01 07:33:43;;;;;;;5.18;1.40;;;;;;;24.32;44.80;99832.78;4328434;33;34915;-76
2023/09/01 07:36:11;;;;;;;2.97;1.45;;;;;;;24.43;45.54;99845.09;4365449;32;34384;-74
2023/09/01 07:38:39;;;;;;;3.03;1.48;;;;;;;24.52;44.38;99841.13;4363803;32;33939;-77
2023/09/01 07:41:08;;;;;;;4.30;1.95;;;;;;;24.75;43.66;99840.84;4364892;32;34468;-76
2023/09/01 07:43:35;;;;;;;3.78;1.30;;;;;;;24.01;45.21;99841.41;4370717;32;34684;-75
2023/09/01 07:46:03;;;;;;;2.78;1.27;;;;;;;24.68;44.05;99842.69;4373356;32;33520;-75
2023/09/01 07:48:31;;;;;;;3.40;2.28;;;;;;;24.73;43.82;99837.44;4370562;32;33449;-76
2023/09/01 07:50:59;;;;;;;6.05;1.50;;;;;;;24.56;43.77;99836.13;4362445;32;34240;-76
2023/09/01 07:53:26;;;;;;;3.85;1.65;;;;;;;24.55;43.64;99835.25;4371573;32;32832;-75
2023/09/01 07:55:54;;;;;;;3.28;1.90;;;;;;;24.34;43.90;99835.34;4375097;32;32531;-76
2023/09/01 07:58:22;;;;;;;4.60;1.92;;;;;;;24.37;44.57;99837.69;4375377;32;34054;-75
2023/09/01 08:00:51;;;;;;;3.78;1.73;;;;;;;24.51;44.43;99839.44;4371934;32;34487;-76
2023/09/01 08:03:19;;;;;;;3.22;1.60;;;;;;;24.61;45.42;99830.88;4361573;32;33778;-75
2023/09/01 08:05:48;;;;;;;1.90;1.08;;;;;;;24.88;44.42;99829.09;4359378;32;33598;-76
2023/09/01 08:08:16;;;;;;;3.70;1.55;;;;;;;24.96;44.06;99831.63;4374671;32;34984;-76
2023/09/01 08:10:44;;;;;;;2.65;1.40;;;;;;;25.06;44.16;99850.41;4373461;32;34692;-76
2023/09/01 08:13:12;;;;;;;3.33;1.70;;;;;;;25.01;44.17;99842.81;4374863;32;34453;-75
2023/09/01 08:15:39;;;;;;;1.65;1.20;;;;;;;24.94;44.00;99846.56;4372691;32;33442;-75
2023/09/01 08:18:07;;;;;;;3.70;1.45;;;;;;;24.93;44.10;99842.16;4371539;32;33461;-76
2023/09/01 08:20:35;;;;;;;3.90;1.77;;;;;;;25.05;43.38;99849.56;4371884;32;35172;-76
2023/09/01 08:23:03;;;;;;;3.45;1.75;;;;;;;25.00;42.85;99845.75;4373448;32;35415;-76
2023/09/01 08:25:32;;;;;;;3.90;1.62;;;;;;;24.85;43.28;99846.75;4368141;32;33528;-76
2023/09/01 08:28:00;;;;;;;5.55;2.40;;;;;;;24.93;44.17;99847.63;4374188;32;34735;-76
2023/09/01 08:30:28;;;;;;;3.12;1.60;;;;;;;25.15;42.75;99857.41;4375389;32;33035;-75
2023/09/01 08:32:55;;;;;;;3.60;1.58;;;;;;;25.17;43.07;99847.09;4373441;32;33065;-76
2023/09/01 08:35:23;;;;;;;4.40;1.95;;;;;;;25.10;43.44;99852.53;4371859;32;34616;-76
2023/09/01 08:37:51;;;;;;;3.65;1.67;;;;;;;24.91;44.07;99852.44;4375692;32;33944;-76
2023/09/01 08:40:19;;;;;;;2.92;1.55;;;;;;;24.79;43.85;99847.59;4371764;32;33790;-76
2023/09/01 08:42:49;;;;;;;3.03;1.58;;;;;;;24.54;45.72;99851.88;4375398;32;33797;-76
2023/09/01 08:45:19;;;;;;;3.08;1.65;;;;;;;24.94;44.34;99850.13;4340251;32;33711;-77
2023/09/01 08:47:48;;;;;;;3.12;1.83;;;;;;;25.12;44.08;99841.41;4342627;32;34853;-74
2023/09/01 08:50:17;;;;;;;2.90;1.60;;;;;;;24.74;44.86;99841.87;4335903;33;33791;-72
2023/09/01 08:52:46;;;;;;;4.40;1.85;;;;;;;24.83;44.56;99837.91;4337730;32;33607;-73
2023/09/01 08:55:15;;;;;;;5.97;2.10;;;;;;;25.13;44.29;99847.72;4339295;33;33647;-72
2023/09/01 08:57:44;;;;;;;3.97;1.87;;;;;;;25.28;43.17;99840.16;4342377;32;33508;-73
2023/09/01 09:00:12;;;;;;;3.22;1.65;;;;;;;25.33;44.04;99843.97;4338213;32;34841;-73
2023/09/01 09:02:41;;;;;;;2.90;1.67;;;;;;;24.58;44.57;99843.06;4340430;32;32734;-73
2023/09/01 09:05:23;;;;;;;2.80;1.55;;;;;;;24.36;44.82;99845.00;4340367;32;32240;-73
2023/09/01 09:08:04;;;;;;;3.30;1.48;;;;;;;24.42;45.34;99845.28;4336021;32;33217;-75
2023/09/01 09:10:37;;;;;;;6.68;2.03;;;;;;;24.46;45.17;99841.09;4341702;32;33809;-75
2023/09/01 09:13:21;;;;;;;2.75;1.30;;;;;;;24.24;44.89;99843.03;4341304;32;33917;-75
2023/09/01 09:16:09;;;;;;;3.95;1.77;;;;;;;24.56;43.90;99838.84;4346114;32;34400;-73
2023/09/01 09:18:40;;;;;;;8.57;1.73;;;;;;;25.18;42.98;99840.56;4369736;32;33523;-72
2023/09/01 09:21:31;;;;;;;3.97;1.77;;;;;;;25.20;43.34;99834.88;4372613;32;33799;-71
2023/09/01 09:24:02;;;;;;;3.17;1.80;;;;;;;24.75;44.69;99846.31;4371077;32;35042;-71
2023/09/01 09:26:56;;;;;;;3.60;1.87;;;;;;;25.19;42.69;99842.25;4366682;32;33691;-72
2023/09/01 09:29:24;;;;;;;4.10;2.15;;;;;;;25.32;43.68;99833.22;4365112;32;33601;-74
2023/09/01 09:31:52;;;;;;;3.97;1.75;;;;;;;25.04;43.07;99839.66;4365998;32;34915;-74
2023/09/01 09:34:24;;;;;;;6.03;2.03;;;;;;;24.78;43.96;99840.44;4372081;32;34853;-73
2023/09/01 09:36:52;;;;;;;3.37;1.67;;;;;;;24.64;44.06;99833.19;4370541;32;33663;-72
2023/09/01 09:39:24;;;;;;;5.25;2.22;;;;;;;24.92;43.23;99830.34;4365674;32;33675;-76
2023/09/01 09:41:54;;;;;;;2.87;1.62;;;;;;;25.27;41.48;99831.09;4362265;32;33998;-76
2023/09/01 09:44:33;;;;;;;5.65;1.92;;;;;;;25.30;42.94;99830.69;4365793;32;35112;-76
2023/09/01 09:47:09;;;;;;;3.55;1.73;;;;;;;25.03;43.61;99831.63;4371338;32;33532;-76
2023/09/01 09:49:38;;;;;;;7.78;1.83;;;;;;;24.38;44.44;99834.72;4367040;32;35268;-76
2023/09/01 09:52:09;;;;;;;4.93;2.05;;;;;;;25.42;42.59;99819.94;4358707;32;35143;-72
2023/09/01 09:54:38;;;;;;;6.12;2.15;;;;;;;25.29;43.11;99833.63;4363570;32;33959;-73
2023/09/01 09:57:07;;;;;;;3.97;1.95;;;;;;;25.07;43.03;99828.31;4369913;32;33551;-73
2023/09/01 09:59:53;;;;;;;6.18;1.83;;;;;;;25.73;42.11;99830.28;4340426;32;34414;-71
2023/09/01 10:02:25;;;;;;;3.40;1.92;;;;;;;25.90;41.79;99829.88;4339639;32;33952;-73
2023/09/01 10:04:53;;;;;;;1.95;1.50;;;;;;;25.70;40.84;99822.47;4331878;33;33045;-74
2023/09/01 10:07:21;;;;;;;3.58;1.67;;;;;;;25.95;40.36;99825.44;4339564;32;33161;-75
2023/09/01 10:09:49;;;;;;;4.55;2.08;;;;;;;26.05;40.87;99825.03;4340351;32;33300;-74
2023/09/01 10:12:20;;;;;;;4.80;1.87;;;;;;;25.43;41.10;99827.13;4325391;33;34861;-73
2023/09/01 10:14:54;;;;;;;4.05;1.98;;;;;;;25.58;40.70;99823.31;4326344;33;33927;-73
2023/09/01 10:17:22;;;;;;;4.82;2.12;;;;;;;26.02;41.49;99833.66;4326279;33;33938;-73
2023/09/01 10:19:49;;;;;;;5.70;1.65;;;;;;;26.10;40.63;99821.62;4326588;33;34876;-73
2023/09/01 10:22:17;;;;;;;3.20;1.70;;;;;;;26.31;41.20;99818.63;4325616;33;32393;-73
2023/09/01 10:25:18;;;;;;;5.03;2.00;;;;;;;26.65;39.99;99816.66;4323713;33;34737;-72
2023/09/01 10:28:05;;;;;;;3.17;1.75;;;;;;;26.44;38.57;99815.00;4327748;33;32459;-72
2023/09/01 10:30:41;;;;;;;4.65;1.50;;;;;;;26.60;40.24;99824.69;4332832;33;32932;-72
2023/09/01 10:33:09;;;;;;;4.30;1.58;;;;;;;25.98;39.67;99824.19;4336852;33;34125;-73
2023/09/01 10:35:38;;;;;;;3.62;1.70;;;;;;;26.23;39.57;99821.62;4342172;33;34748;-73
2023/09/01 10:38:17;;;;;;;2.53;1.60;;;;;;;26.32;39.05;99820.31;4339879;32;34658;-73
2023/09/01 10:40:52;;;;;;;3.33;1.37;;;;;;;26.80;39.77;99821.84;4337544;33;32772;-73
2023/09/01 10:43:52;;;;;;;2.87;1.50;;;;;;;26.39;38.65;99817.56;4345011;32;34973;-72
2023/09/01 10:46:20;;;;;;;3.28;1.77;;;;;;;26.63;39.02;99822.34;4360680;32;34055;-72
2023/09/01 10:48:58;;;;;;;4.03;1.73;;;;;;;26.58;38.93;99813.94;4357769;32;33411;-73
2023/09/01 10:51:30;;;;;;;3.62;2.08;;;;;;;26.84;39.22;99814.88;4357464;32;33959;-73
2023/09/01 10:54:01;;;;;;;4.78;2.15;;;;;;;26.62;39.23;99812.44;4360210;32;34821;-74
2023/09/01 10:56:31;;;;;;;3.95;1.60;;;;;;;26.69;38.63;99807.75;4357243;32;34867;-71
2023/09/01 10:58:59;;;;;;;7.85;1.62;;;;;;;26.50;38.31;99814.16;4359689;32;34702;-72
2023/09/01 11:01:37;;;;;;;3.58;1.83;;;;;;;26.51;39.08;99810.34;4366100;32;34618;-74
2023/09/01 11:04:14;;;;;;;6.78;1.83;;;;;;;26.82;38.27;99804.09;4367261;32;35159;-73
2023/09/01 11:07:00;;;;;;;3.90;2.00;;;;;;;26.30;38.97;99810.63;4370723;32;34860;-73
2023/09/01 11:09:33;;;;;;;4.45;2.22;;;;;;;26.49;38.75;99809.75;4364894;32;33790;-73
2023/09/01 11:12:03;;;;;;;2.90;1.77;;;;;;;25.66;39.45;99813.00;4365595;32;35051;-74
2023/09/01 11:14:31;;;;;;;4.78;2.05;;;;;;;25.87;40.19;99816.59;4343475;32;33684;-72
2023/09/01 11:17:00;;;;;;;4.45;1.77;;;;;;;26.43;39.07;99807.84;4340446;32;34028;-72
2023/09/01 11:19:46;;;;;;;3.35;1.52;;;;;;;26.23;39.25;99810.66;4339052;32;33348;-73
2023/09/01 11:22:14;;;;;;;4.60;1.95;;;;;;;26.58;37.34;99808.44;4340641;33;33658;-73
2023/09/01 11:24:45;;;;;;;4.22;1.92;;;;;;;26.85;38.62;99802.81;4342375;32;33975;-73
2023/09/01 11:27:13;;;;;;;3.92;1.75;;;;;;;26.59;38.44;99801.88;4340776;33;34076;-73
2023/09/01 11:29:41;;;;;;;5.05;1.75;;;;;;;26.27;38.78;99806.41;4324682;32;32060;-73
2023/09/01 11:32:09;;;;;;;2.97;1.55;;;;;;;26.31;38.13;99807.66;4335778;32;33077;-72
2023/09/01 11:34:38;;;;;;;3.60;1.92;;;;;;;26.84;37.30;99812.13;4341531;32;34029;-74
2023/09/01 11:37:06;;;;;;;3.95;2.03;;;;;;;26.41;38.75;99804.44;4342307;32;34982;-73
2023/09/01 11:39:34;;;;;;;3.62;1.85;;;;;;;26.42;38.82;99809.75;4340295;32;33715;-72
2023/09/01 11:42:01;;;;;;;6.72;1.75;;;;;;;26.49;39.01;99804.25;4340257;32;33510;-73
2023/09/01 11:44:30;;;;;;;3.95;1.67;;;;;;;26.64;38.70;99810.28;4341464;32;34750;-73
2023/09/01 11:46:58;;;;;;;3.05;1.73;;;;;;;25.73;40.07;99804.78;4369735;32;34844;-73